createdAt,value
2017-07-09T00:01:38.304Z,61.60
2017-07-09T00:04:05.836Z,61.60
2017-07-09T00:06:33.425Z,61.90
2017-07-09T00:09:00.957Z,61.80
2017-07-09T00:11:28.537Z,61.80
2017-07-09T00:13:56.302Z,62.10
2017-07-09T00:16:23.825Z,62.30
2017-07-09T00:18:52.115Z,62.20
2017-07-09T00:21:19.641Z,62.10
2017-07-09T00:23:47.257Z,62.40
2017-07-09T00:26:14.914Z,62.30
2017-07-09T00:28:42.452Z,62.50
2017-07-09T00:31:09.977Z,62.60
2017-07-09T00:33:37.593Z,62.50
2017-07-09T00:36:05.169Z,62.50
2017-07-09T00:38:32.814Z,62.40
2017-07-09T00:41:00.338Z,62.80
2017-07-09T00:43:28.629Z,62.50
2017-07-09T00:45:56.209Z,62.40
2017-07-09T00:48:23.767Z,62.50
2017-07-09T00:50:51.331Z,62.50
2017-07-09T00:53:18.885Z,62.50
2017-07-09T00:55:46.405Z,62.50
2017-07-09T00:58:14.723Z,62.20
2017-07-09T01:00:42.274Z,62.20
2017-07-09T01:03:09.939Z,62.20
2017-07-09T01:05:37.464Z,62.30
2017-07-09T01:08:05.768Z,62.30
2017-07-09T01:10:33.341Z,62.30
2017-07-09T01:13:00.857Z,62.40
2017-07-09T01:15:28.462Z,62.70
2017-07-09T01:17:56.007Z,63.00
2017-07-09T01:20:23.546Z,63.00
2017-07-09T01:22:51.121Z,62.80
2017-07-09T01:25:18.693Z,62.90
2017-07-09T01:27:46.254Z,62.70
2017-07-09T01:30:13.798Z,62.80
2017-07-09T01:32:41.354Z,62.70
2017-07-09T01:35:08.917Z,62.70
2017-07-09T01:37:36.474Z,62.70
2017-07-09T01:40:04.022Z,62.80
2017-07-09T01:42:31.605Z,62.60
2017-07-09T01:44:59.133Z,62.80
2017-07-09T01:47:26.709Z,63.10
2017-07-09T01:49:54.274Z,63.30
2017-07-09T01:52:21.926Z,63.60
2017-07-09T01:54:49.489Z,63.70
2017-07-09T01:57:17.049Z,63.80
2017-07-09T01:59:44.607Z,63.40
2017-07-09T02:02:12.177Z,63.10
2017-07-09T02:04:39.829Z,64.30
2017-07-09T02:07:07.349Z,64.10
2017-07-09T02:09:35.662Z,64.40
2017-07-09T02:12:03.227Z,64.40
2017-07-09T02:14:30.779Z,63.90
2017-07-09T02:16:58.337Z,64.20
2017-07-09T02:19:25.865Z,64.20
2017-07-09T02:21:54.175Z,64.70
2017-07-09T02:24:21.737Z,64.70
2017-07-09T02:26:49.344Z,64.80
2017-07-09T02:29:16.834Z,65.40
2017-07-09T02:31:44.408Z,65.50
2017-07-09T02:34:11.974Z,65.00
2017-07-09T02:36:39.533Z,64.90
2017-07-09T02:39:07.086Z,64.40
2017-07-09T02:41:34.615Z,64.10
2017-07-09T02:44:02.138Z,64.70
2017-07-09T02:46:29.759Z,65.00
2017-07-09T02:48:57.319Z,65.90
2017-07-09T02:51:24.980Z,66.90
2017-07-09T02:53:52.497Z,67.30
2017-07-09T02:56:20.822Z,66.10
2017-07-09T02:58:48.578Z,66.00
2017-07-09T03:01:16.138Z,65.40
2017-07-09T03:03:43.701Z,65.30
2017-07-09T03:06:11.374Z,65.30
2017-07-09T03:08:38.893Z,64.70
2017-07-09T03:11:06.481Z,64.50
2017-07-09T03:13:34.141Z,64.80
2017-07-09T03:16:01.701Z,64.40
2017-07-09T03:18:29.263Z,65.00
2017-07-09T03:20:56.917Z,65.20
2017-07-09T03:23:24.478Z,65.80
2017-07-09T03:25:52.041Z,66.70
2017-07-09T03:28:19.742Z,66.70
2017-07-09T03:30:47.274Z,66.40
2017-07-09T03:33:14.813Z,65.30
2017-07-09T03:35:42.341Z,65.50
2017-07-09T03:38:09.862Z,64.70
2017-07-09T03:40:37.488Z,64.20
2017-07-09T03:43:05.009Z,64.00
2017-07-09T03:45:33.321Z,63.90
2017-07-09T03:48:00.836Z,63.80
2017-07-09T03:50:29.158Z,63.40
2017-07-09T03:52:56.712Z,63.30
2017-07-09T03:55:24.278Z,63.30
2017-07-09T03:57:51.842Z,62.80
2017-07-09T04:00:19.397Z,63.50
2017-07-09T04:02:46.957Z,63.10
2017-07-09T04:05:14.617Z,63.10
2017-07-09T04:07:42.177Z,63.30
2017-07-09T04:10:09.738Z,63.20
2017-07-09T04:12:37.298Z,63.50
2017-07-09T04:15:04.852Z,63.00
2017-07-09T04:17:32.403Z,62.10
2017-07-09T04:19:59.966Z,61.60
2017-07-09T04:22:27.528Z,61.30
2017-07-09T04:24:55.086Z,61.00
2017-07-09T04:27:22.648Z,60.40
2017-07-09T04:29:50.406Z,60.20
2017-07-09T04:32:17.926Z,59.50
2017-07-09T04:34:46.246Z,61.00
2017-07-09T04:37:13.801Z,61.00
2017-07-09T04:39:41.362Z,60.70
2017-07-09T04:42:08.926Z,60.50
2017-07-09T04:44:36.481Z,60.40
2017-07-09T04:47:04.046Z,59.70
2017-07-09T04:49:31.603Z,59.30
2017-07-09T04:51:59.158Z,59.30
2017-07-09T04:54:26.815Z,59.00
2017-07-09T04:56:54.377Z,58.70
2017-07-09T04:59:21.943Z,58.60
2017-07-09T05:01:49.466Z,58.40
2017-07-09T05:04:16.994Z,58.50
2017-07-09T05:06:44.614Z,59.10
2017-07-09T05:09:12.179Z,59.40
2017-07-09T05:11:39.698Z,59.80
2017-07-09T05:14:07.288Z,59.70
2017-07-09T05:16:34.853Z,60.10
2017-07-09T05:19:02.493Z,59.90
2017-07-09T05:21:30.063Z,60.30
2017-07-09T05:23:57.624Z,60.10
2017-07-09T05:26:25.180Z,61.20
2017-07-09T05:28:52.774Z,61.50
2017-07-09T05:31:20.402Z,62.40
2017-07-09T05:33:47.961Z,62.10
2017-07-09T05:36:15.530Z,61.70
2017-07-09T05:38:43.062Z,60.80
2017-07-09T05:41:10.637Z,60.10
2017-07-09T05:43:38.310Z,59.30
2017-07-09T05:46:05.864Z,59.40
2017-07-09T05:48:33.421Z,59.20
2017-07-09T05:51:00.978Z,59.00
2017-07-09T05:53:28.494Z,59.50
2017-07-09T05:55:56.911Z,59.00
2017-07-09T05:58:24.474Z,59.00
2017-07-09T06:00:52.033Z,58.70
2017-07-09T06:03:19.593Z,58.50
2017-07-09T06:05:47.150Z,58.70
2017-07-09T06:08:14.702Z,58.60
2017-07-09T06:10:42.272Z,58.90
2017-07-09T06:13:09.797Z,58.10
2017-07-09T06:15:37.388Z,58.40
2017-07-09T06:18:04.966Z,58.30
2017-07-09T06:20:32.598Z,57.70
2017-07-09T06:23:00.113Z,56.80
2017-07-09T06:25:28.444Z,57.20
2017-07-09T06:27:55.994Z,56.60
2017-07-09T06:30:23.555Z,56.30
2017-07-09T06:32:51.214Z,56.60
2017-07-09T06:35:18.745Z,56.60
2017-07-09T06:37:47.058Z,56.30
2017-07-09T06:40:14.623Z,56.20
2017-07-09T06:42:42.173Z,56.00
2017-07-09T06:45:09.835Z,56.00
2017-07-09T06:47:37.354Z,55.90
2017-07-09T06:50:05.666Z,56.10
2017-07-09T06:52:33.220Z,56.00
2017-07-09T06:55:00.785Z,56.00
2017-07-09T06:57:28.553Z,56.40
2017-07-09T06:59:56.105Z,56.10
2017-07-09T07:02:23.665Z,55.80
2017-07-09T07:04:51.222Z,55.50
2017-07-09T07:07:18.786Z,55.10
2017-07-09T07:09:46.441Z,55.10
2017-07-09T07:12:14.009Z,54.90
2017-07-09T07:14:41.557Z,54.60
2017-07-09T07:17:09.118Z,54.80
2017-07-09T07:19:36.678Z,54.30
2017-07-09T07:22:04.216Z,54.10
2017-07-09T07:24:31.797Z,53.60
2017-07-09T07:26:59.353Z,53.00
2017-07-09T07:29:26.872Z,53.00
2017-07-09T07:31:55.146Z,52.30
2017-07-09T07:34:23.569Z,52.40
2017-07-09T07:36:51.131Z,52.30
2017-07-09T07:39:18.653Z,52.00
2017-07-09T07:41:46.958Z,51.20
2017-07-09T07:44:14.521Z,51.20
2017-07-09T07:46:42.081Z,51.40
2017-07-09T07:49:09.597Z,51.10
2017-07-09T07:51:37.874Z,51.10
2017-07-09T07:54:06.163Z,51.00
2017-07-09T07:56:33.733Z,50.90
2017-07-09T07:59:01.307Z,50.90
2017-07-09T08:01:28.834Z,51.30
2017-07-09T08:03:57.134Z,49.40
2017-07-09T08:06:24.701Z,49.30
2017-07-09T08:08:52.258Z,49.40
2017-07-09T08:11:19.919Z,49.00
2017-07-09T08:13:47.479Z,49.00
2017-07-09T08:16:15.030Z,48.30
2017-07-09T08:18:42.549Z,47.80
2017-07-09T08:21:10.879Z,48.50
2017-07-09T08:23:38.534Z,48.40
2017-07-09T08:26:06.044Z,49.30
2017-07-09T08:28:34.368Z,49.80
2017-07-09T08:31:01.925Z,49.80
2017-07-09T08:33:29.486Z,50.00
2017-07-09T08:35:57.042Z,49.80
2017-07-09T08:38:24.569Z,49.40
2017-07-09T08:40:52.878Z,47.00
2017-07-09T08:43:20.438Z,46.80
2017-07-09T08:45:47.995Z,45.00
2017-07-09T08:48:15.554Z,47.00
2017-07-09T08:50:43.114Z,47.20
2017-07-09T08:53:10.674Z,45.50
2017-07-09T08:55:38.209Z,45.40
2017-07-09T08:58:05.792Z,45.10
2017-07-09T09:00:33.329Z,45.50
2017-07-09T09:03:00.853Z,46.00
2017-07-09T09:05:28.374Z,47.50
2017-07-09T09:07:55.926Z,44.60
2017-07-09T09:10:23.490Z,44.60
2017-07-09T09:12:51.143Z,44.10
2017-07-09T09:15:18.702Z,45.20
2017-07-09T09:17:46.261Z,44.30
2017-07-09T09:20:13.820Z,44.00
2017-07-09T09:22:41.333Z,44.00
2017-07-09T09:25:09.721Z,43.40
2017-07-09T09:27:37.193Z,43.40
2017-07-09T09:30:04.781Z,42.10
2017-07-09T09:32:32.313Z,42.80
2017-07-09T09:34:59.829Z,43.30
2017-07-09T09:37:27.368Z,43.30
2017-07-09T09:39:54.907Z,41.50
2017-07-09T09:42:22.471Z,42.90
2017-07-09T09:44:50.025Z,42.80
2017-07-09T09:47:17.590Z,42.30
2017-07-09T09:49:45.133Z,42.50
2017-07-09T09:52:12.701Z,42.00
2017-07-09T09:54:40.265Z,42.10
2017-07-09T09:57:07.830Z,42.40
2017-07-09T09:59:35.382Z,41.30
2017-07-09T10:02:02.924Z,41.10
2017-07-09T10:04:30.497Z,43.00
2017-07-09T10:06:58.057Z,41.70
2017-07-09T10:09:25.612Z,40.40
2017-07-09T10:11:53.174Z,40.70
2017-07-09T10:14:20.734Z,40.90
2017-07-09T10:16:48.300Z,40.80
2017-07-09T10:19:15.850Z,40.70
2017-07-09T10:21:43.414Z,40.90
2017-07-09T10:24:10.954Z,38.70
2017-07-09T10:26:38.497Z,39.40
2017-07-09T10:29:06.796Z,39.10
2017-07-09T10:31:34.313Z,39.10
2017-07-09T10:34:02.639Z,36.90
2017-07-09T10:36:30.208Z,36.80
2017-07-09T10:38:57.860Z,37.20
2017-07-09T10:41:25.416Z,37.90
2017-07-09T10:43:52.941Z,36.40
2017-07-09T10:46:21.234Z,35.40
2017-07-09T10:48:48.749Z,35.40
2017-07-09T10:51:16.304Z,36.50
2017-07-09T10:53:43.942Z,35.90
2017-07-09T10:56:11.490Z,36.10
2017-07-09T10:58:39.050Z,35.80
2017-07-09T11:01:06.610Z,36.40
2017-07-09T11:03:34.269Z,34.20
2017-07-09T11:06:01.824Z,34.20
2017-07-09T11:08:29.386Z,32.90
2017-07-09T11:10:56.907Z,33.10
2017-07-09T11:13:24.509Z,31.70
2017-07-09T11:15:52.174Z,32.90
2017-07-09T11:18:19.722Z,33.50
2017-07-09T11:20:47.281Z,33.40
2017-07-09T11:23:14.835Z,33.90
2017-07-09T11:25:42.399Z,35.40
2017-07-09T11:28:09.966Z,35.70
2017-07-09T11:30:37.517Z,35.80
2017-07-09T11:33:05.075Z,36.30
2017-07-09T11:35:32.596Z,36.50
2017-07-09T11:38:00.881Z,37.00
2017-07-09T11:40:29.190Z,36.20
2017-07-09T11:42:56.749Z,36.10
2017-07-09T11:45:24.264Z,35.60
2017-07-09T11:47:52.587Z,35.90
2017-07-09T11:50:20.146Z,35.90
2017-07-09T11:52:47.805Z,36.20
2017-07-09T11:55:15.370Z,35.00
2017-07-09T11:57:42.923Z,35.10
2017-07-09T12:00:10.483Z,34.60
2017-07-09T12:02:38.044Z,34.90
2017-07-09T12:05:05.582Z,35.20
2017-07-09T12:07:33.165Z,35.60
2017-07-09T12:10:00.686Z,35.00
2017-07-09T12:12:28.273Z,34.90
2017-07-09T12:14:55.837Z,33.00
2017-07-09T12:17:23.489Z,32.50
2017-07-09T12:19:51.008Z,31.90
2017-07-09T12:22:19.327Z,31.80
2017-07-09T12:24:46.886Z,31.50
2017-07-09T12:27:14.442Z,32.10
2017-07-09T12:29:41.982Z,32.50
2017-07-09T12:32:09.563Z,32.80
2017-07-09T12:34:37.126Z,32.60
2017-07-09T12:37:04.664Z,33.40
2017-07-09T12:39:32.185Z,33.90
2017-07-09T12:41:59.726Z,34.30
2017-07-09T12:44:27.237Z,34.70
2017-07-09T12:46:54.822Z,32.60
2017-07-09T12:49:22.379Z,33.00
2017-07-09T12:51:49.948Z,32.80
2017-07-09T12:54:17.495Z,32.30
2017-07-09T12:56:45.014Z,31.20
2017-07-09T12:59:13.328Z,32.10
2017-07-09T13:01:40.850Z,32.00
2017-07-09T13:04:09.162Z,31.90
2017-07-09T13:06:36.711Z,31.90
2017-07-09T13:09:04.285Z,31.60
2017-07-09T13:11:31.840Z,31.60
2017-07-09T13:13:59.358Z,30.40
2017-07-09T13:16:27.673Z,29.90
2017-07-09T13:18:55.345Z,29.80
2017-07-09T13:21:22.890Z,29.60
2017-07-09T13:23:50.419Z,31.30
2017-07-09T13:26:18.706Z,29.90
2017-07-09T13:28:46.291Z,29.90
2017-07-09T13:31:13.854Z,30.00
2017-07-09T13:33:41.407Z,29.60
2017-07-09T13:36:08.968Z,30.00
2017-07-09T13:38:36.527Z,29.00
2017-07-09T13:41:04.055Z,29.50
2017-07-09T13:43:31.858Z,28.80
2017-07-09T13:45:59.407Z,29.30
2017-07-09T13:48:26.967Z,29.20
2017-07-09T13:50:54.527Z,29.70
2017-07-09T13:53:22.083Z,29.10
2017-07-09T13:55:49.626Z,28.70
2017-07-09T13:58:17.150Z,29.00
2017-07-09T14:00:44.761Z,28.10
2017-07-09T14:03:12.319Z,27.80
2017-07-09T14:05:39.881Z,28.70
2017-07-09T14:08:07.442Z,28.70
2017-07-09T14:10:35.009Z,28.60
2017-07-09T14:13:02.561Z,28.50
2017-07-09T14:15:30.121Z,29.40
2017-07-09T14:17:57.674Z,29.80
2017-07-09T14:20:25.233Z,30.10
2017-07-09T14:22:52.797Z,30.60
2017-07-09T14:25:20.349Z,30.20
2017-07-09T14:27:47.923Z,30.50
2017-07-09T14:30:15.470Z,29.00
2017-07-09T14:32:43.026Z,29.30
2017-07-09T14:35:10.549Z,28.80
2017-07-09T14:37:38.862Z,28.30
2017-07-09T14:40:06.381Z,28.30
2017-07-09T14:42:34.699Z,29.70
2017-07-09T14:45:02.241Z,29.60
2017-07-09T14:47:29.753Z,30.00
2017-07-09T14:49:57.386Z,29.80
2017-07-09T14:52:24.960Z,29.20
2017-07-09T14:54:52.438Z,28.70
2017-07-09T14:57:20.060Z,28.30
2017-07-09T14:59:47.609Z,29.00
2017-07-09T15:02:15.126Z,29.30
2017-07-09T15:04:43.454Z,28.50
2017-07-09T15:07:11.007Z,28.50
2017-07-09T15:09:38.571Z,28.60
2017-07-09T15:12:06.124Z,29.40
2017-07-09T15:14:33.682Z,29.90
2017-07-09T15:17:01.249Z,29.60
2017-07-09T15:19:28.806Z,30.00
2017-07-09T15:21:56.454Z,30.00
2017-07-09T15:24:23.972Z,30.00
2017-07-09T15:26:52.253Z,30.10
2017-07-09T15:29:20.576Z,30.20
2017-07-09T15:31:48.130Z,30.20
2017-07-09T15:34:15.781Z,29.70
2017-07-09T15:36:43.348Z,30.20
2017-07-09T15:39:10.857Z,29.80
2017-07-09T15:41:38.374Z,29.40
2017-07-09T15:44:05.902Z,29.60
2017-07-09T15:46:33.481Z,29.30
2017-07-09T15:49:01.001Z,28.50
2017-07-09T15:51:29.422Z,28.90
2017-07-09T15:53:56.977Z,28.80
2017-07-09T15:56:24.538Z,28.90
2017-07-09T15:58:52.081Z,28.90
2017-07-09T16:01:19.598Z,29.30
2017-07-09T16:03:47.114Z,29.30
2017-07-09T16:06:14.666Z,28.90
2017-07-09T16:08:42.185Z,29.10
2017-07-09T16:11:10.503Z,29.60
2017-07-09T16:13:38.064Z,29.10
2017-07-09T16:16:05.586Z,29.70
2017-07-09T16:18:33.867Z,29.80
2017-07-09T16:21:02.169Z,30.00
2017-07-09T16:23:29.737Z,30.00
2017-07-09T16:25:57.291Z,29.80
2017-07-09T16:28:24.853Z,30.00
2017-07-09T16:30:52.411Z,30.50
2017-07-09T16:33:19.969Z,30.90
2017-07-09T16:35:47.637Z,30.30
2017-07-09T16:38:15.190Z,29.90
2017-07-09T16:40:42.750Z,30.60
2017-07-09T16:43:10.286Z,30.70
2017-07-09T16:45:37.868Z,31.00
2017-07-09T16:48:05.425Z,30.70
2017-07-09T16:50:32.979Z,30.20
2017-07-09T16:53:00.537Z,30.60
2017-07-09T16:55:28.101Z,31.50
2017-07-09T16:57:55.662Z,32.30
2017-07-09T17:00:23.205Z,32.80
2017-07-09T17:02:50.779Z,33.20
2017-07-09T17:05:18.357Z,33.80
2017-07-09T17:07:45.899Z,33.50
2017-07-09T17:10:13.457Z,34.20
2017-07-09T17:12:41.118Z,34.60
2017-07-09T17:15:08.634Z,34.60
2017-07-09T17:17:36.953Z,34.40
2017-07-09T17:20:04.513Z,35.10
2017-07-09T17:22:32.066Z,34.60
2017-07-09T17:24:59.634Z,35.00
2017-07-09T17:27:27.153Z,35.40
2017-07-09T17:29:55.437Z,35.00
2017-07-09T17:32:23.027Z,35.60
2017-07-09T17:34:50.587Z,35.10
2017-07-09T17:37:18.245Z,35.50
2017-07-09T17:39:45.765Z,36.00
2017-07-09T17:42:14.045Z,36.20
2017-07-09T17:44:42.353Z,36.60
2017-07-09T17:47:09.915Z,36.60
2017-07-09T17:49:37.457Z,36.70
2017-07-09T17:52:05.033Z,36.70
2017-07-09T17:54:32.594Z,36.60
2017-07-09T17:57:00.148Z,37.20
2017-07-09T17:59:27.713Z,36.30
2017-07-09T18:01:55.376Z,36.30
2017-07-09T18:04:22.937Z,36.40
2017-07-09T18:06:50.454Z,36.80
2017-07-09T18:09:18.733Z,36.80
2017-07-09T18:11:47.038Z,37.20
2017-07-09T18:14:14.601Z,37.10
2017-07-09T18:16:42.157Z,37.40
2017-07-09T18:19:09.693Z,37.50
2017-07-09T18:21:37.210Z,37.20
2017-07-09T18:24:04.834Z,37.50
2017-07-09T18:26:32.391Z,37.90
2017-07-09T18:28:59.950Z,38.50
2017-07-09T18:31:27.511Z,38.80
2017-07-09T18:33:55.063Z,39.00
2017-07-09T18:36:22.630Z,39.00
2017-07-09T18:38:50.174Z,39.30
2017-07-09T18:41:17.771Z,39.60
2017-07-09T18:43:45.305Z,39.30
2017-07-09T18:46:12.874Z,39.10
2017-07-09T18:48:40.427Z,39.80
2017-07-09T18:51:07.969Z,40.30
2017-07-09T18:53:35.494Z,40.00
2017-07-09T18:56:03.818Z,40.00
2017-07-09T18:58:31.376Z,39.80
2017-07-09T19:00:58.894Z,40.30
2017-07-09T19:03:27.198Z,40.80
2017-07-09T19:05:54.779Z,40.80
2017-07-09T19:08:22.329Z,41.20
2017-07-09T19:10:49.886Z,42.10
2017-07-09T19:13:17.445Z,42.20
2017-07-09T19:15:45.004Z,42.20
2017-07-09T19:18:12.564Z,42.10
2017-07-09T19:20:40.086Z,42.10
2017-07-09T19:23:08.373Z,42.20
2017-07-09T19:25:35.905Z,42.20
2017-07-09T19:28:03.526Z,42.20
2017-07-09T19:30:31.048Z,42.40
2017-07-09T19:32:58.586Z,42.40
2017-07-09T19:35:26.918Z,43.30
2017-07-09T19:37:54.470Z,42.50
2017-07-09T19:40:22.035Z,42.90
2017-07-09T19:42:49.597Z,43.20
2017-07-09T19:45:17.152Z,43.50
2017-07-09T19:47:44.668Z,43.30
2017-07-09T19:50:12.957Z,43.80
2017-07-09T19:52:40.543Z,43.80
2017-07-09T19:55:08.110Z,44.30
2017-07-09T19:57:35.629Z,44.60
2017-07-09T20:00:03.153Z,45.10
2017-07-09T20:02:30.782Z,45.60
2017-07-09T20:04:58.383Z,45.50
2017-07-09T20:07:25.874Z,45.60
2017-07-09T20:09:53.535Z,45.90
2017-07-09T20:12:21.125Z,45.70
2017-07-09T20:14:48.646Z,45.80
2017-07-09T20:17:16.195Z,46.10
2017-07-09T20:19:44.515Z,45.70
2017-07-09T20:22:12.041Z,45.70
2017-07-09T20:24:39.626Z,45.90
2017-07-09T20:27:07.185Z,46.20
2017-07-09T20:29:34.750Z,46.40
2017-07-09T20:32:02.269Z,46.70
2017-07-09T20:34:30.581Z,46.10
2017-07-09T20:36:58.141Z,46.00
2017-07-09T20:39:25.697Z,46.30
2017-07-09T20:41:53.462Z,46.70
2017-07-09T20:44:21.022Z,46.60
2017-07-09T20:46:48.538Z,46.80
2017-07-09T20:49:16.858Z,46.60
2017-07-09T20:51:44.415Z,46.60
2017-07-09T20:54:12.087Z,46.20
2017-07-09T20:56:39.645Z,46.10
2017-07-09T20:59:07.198Z,45.70
2017-07-09T21:01:34.762Z,46.00
2017-07-09T21:04:02.316Z,46.80
2017-07-09T21:06:29.873Z,46.80
2017-07-09T21:08:57.431Z,47.30
2017-07-09T21:11:24.987Z,46.80
2017-07-09T21:13:52.505Z,46.50
2017-07-09T21:16:20.794Z,47.40
2017-07-09T21:18:48.337Z,47.40
2017-07-09T21:21:16.632Z,48.00
2017-07-09T21:23:44.165Z,48.00
2017-07-09T21:26:12.527Z,49.40
2017-07-09T21:28:40.163Z,48.60
2017-07-09T21:31:07.775Z,48.80
2017-07-09T21:33:35.264Z,49.20
2017-07-09T21:36:02.831Z,49.00
2017-07-09T21:38:30.385Z,48.70
2017-07-09T21:40:57.950Z,48.70
2017-07-09T21:43:25.618Z,48.40
2017-07-09T21:45:54.701Z,48.10
2017-07-09T21:48:22.262Z,48.10
2017-07-09T21:50:49.821Z,47.70
2017-07-09T21:53:17.384Z,47.80
2017-07-09T21:55:45.054Z,48.00
2017-07-09T21:58:12.600Z,47.60
2017-07-09T22:00:40.164Z,47.90
2017-07-09T22:03:07.720Z,48.10
2017-07-09T22:05:35.278Z,47.80
2017-07-09T22:08:02.829Z,47.50
2017-07-09T22:10:30.394Z,48.00
2017-07-09T22:12:57.954Z,47.90
2017-07-09T22:15:25.474Z,48.50
2017-07-09T22:17:53.759Z,48.30
2017-07-09T22:20:21.355Z,48.20
2017-07-09T22:22:48.865Z,48.30
2017-07-09T22:25:17.184Z,47.90
2017-07-09T22:27:44.740Z,47.90
2017-07-09T22:30:12.302Z,47.80
2017-07-09T22:32:39.861Z,48.00
2017-07-09T22:35:07.422Z,47.80
2017-07-09T22:37:34.990Z,47.40
2017-07-09T22:40:02.538Z,47.30
2017-07-09T22:42:30.093Z,47.80
2017-07-09T22:44:57.658Z,47.40
2017-07-09T22:47:25.177Z,47.60
2017-07-09T22:49:53.487Z,47.70
2017-07-09T22:52:21.048Z,47.60
2017-07-09T22:54:48.569Z,47.50
2017-07-09T22:57:16.872Z,48.20
2017-07-09T22:59:44.447Z,47.50
2017-07-09T23:02:12.003Z,47.80
2017-07-09T23:04:39.559Z,47.90
2017-07-09T23:07:07.124Z,48.10
2017-07-09T23:09:34.787Z,48.10
2017-07-09T23:12:02.345Z,48.10
2017-07-09T23:14:29.865Z,47.90
2017-07-09T23:16:58.149Z,47.50
2017-07-09T23:19:25.836Z,47.50
2017-07-09T23:21:53.397Z,47.40
2017-07-09T23:24:20.951Z,47.60
2017-07-09T23:26:48.509Z,47.80
2017-07-09T23:29:16.026Z,47.80
2017-07-09T23:31:44.322Z,48.20
2017-07-09T23:34:12.687Z,48.00
2017-07-09T23:36:40.282Z,47.90
2017-07-09T23:39:07.847Z,48.00
2017-07-09T23:41:35.402Z,48.20
2017-07-09T23:44:02.961Z,47.70
2017-07-09T23:46:30.722Z,47.80
2017-07-09T23:48:58.243Z,47.50
2017-07-09T23:51:26.529Z,47.90
2017-07-09T23:53:54.109Z,47.80
2017-07-09T23:56:21.683Z,47.30
2017-07-09T23:58:49.338Z,47.70
